createdAt,value
2023-04-15T00:00:56.585Z,23.29
2023-04-15T00:01:56.667Z,23.30
2023-04-15T00:02:56.762Z,23.31
2023-04-15T00:03:56.648Z,23.31
2023-04-15T00:04:56.559Z,23.32
2023-04-15T00:05:56.554Z,23.32
2023-04-15T00:06:56.537Z,23.32
2023-04-15T00:07:56.527Z,23.32
2023-04-15T00:08:56.525Z,23.33
2023-04-15T00:09:56.517Z,23.32
2023-04-15T00:10:56.553Z,23.32
2023-04-15T00:11:56.506Z,23.33
2023-04-15T00:12:56.506Z,23.33
2023-04-15T00:13:56.493Z,23.32
2023-04-15T00:14:56.486Z,23.32
2023-04-15T00:15:56.473Z,23.32
2023-04-15T00:16:56.549Z,23.33
2023-04-15T00:17:56.490Z,23.32
2023-04-15T00:18:56.449Z,23.32
2023-04-15T00:19:56.448Z,23.33
2023-04-15T00:20:56.441Z,23.32
2023-04-15T00:21:56.437Z,23.32
2023-04-15T00:22:56.427Z,23.32
2023-04-15T00:23:56.420Z,23.32
2023-04-15T00:24:56.411Z,23.33
2023-04-15T00:25:56.405Z,23.32
2023-04-15T00:26:56.431Z,23.32
2023-04-15T00:27:56.396Z,23.32
2023-04-15T00:28:56.394Z,23.32
2023-04-15T00:29:56.384Z,23.32
2023-04-15T00:30:56.419Z,23.32
2023-04-15T00:31:56.373Z,23.32
2023-04-15T00:32:56.454Z,23.32
2023-04-15T00:33:56.362Z,23.32
2023-04-15T00:34:56.363Z,23.33
2023-04-15T00:35:56.351Z,23.32
2023-04-15T00:36:56.343Z,23.32
2023-04-15T00:37:56.329Z,23.32
2023-04-15T00:38:56.329Z,23.32
2023-04-15T00:39:56.317Z,23.32
2023-04-15T00:40:56.317Z,23.32
2023-04-15T00:41:56.315Z,23.32
2023-04-15T00:42:56.339Z,23.32
2023-04-15T00:43:56.298Z,23.32
2023-04-15T00:44:56.286Z,23.32
2023-04-15T00:45:56.286Z,23.32
2023-04-15T00:46:56.275Z,23.32
2023-04-15T00:47:56.337Z,23.32
2023-04-15T00:48:56.263Z,23.32
2023-04-15T00:49:56.258Z,23.31
2023-04-15T00:50:56.249Z,23.31
2023-04-15T00:51:56.236Z,23.31
2023-04-15T00:52:56.230Z,23.31
2023-04-15T00:53:56.218Z,23.31
2023-04-15T00:54:56.218Z,23.31
2023-04-15T00:55:56.220Z,23.30
2023-04-15T00:56:56.210Z,23.30
2023-04-15T00:57:56.196Z,23.30
2023-04-15T00:58:56.219Z,23.30
2023-04-15T00:59:56.242Z,23.29
2023-04-15T01:00:56.201Z,23.30
2023-04-15T01:01:56.308Z,23.30
2023-04-15T01:02:56.322Z,23.30
2023-04-15T01:03:56.358Z,23.30
2023-04-15T01:04:56.160Z,23.30
2023-04-15T01:05:56.149Z,23.30
2023-04-15T01:06:56.145Z,23.30
2023-04-15T01:07:56.141Z,23.31
2023-04-15T01:08:56.124Z,23.30
2023-04-15T01:09:56.120Z,23.30
2023-04-15T01:10:56.116Z,23.30
2023-04-15T01:11:56.115Z,23.30
2023-04-15T01:12:56.107Z,23.29
2023-04-15T01:13:56.106Z,23.30
2023-04-15T01:14:56.143Z,23.30
2023-04-15T01:15:56.112Z,23.29
2023-04-15T01:16:56.077Z,23.30
2023-04-15T01:17:56.095Z,23.30
2023-04-15T01:18:56.071Z,23.30
2023-04-15T01:19:56.589Z,23.31
2023-04-15T01:20:56.580Z,23.30
2023-04-15T01:21:56.059Z,23.31
2023-04-15T01:22:56.081Z,23.30
2023-04-15T01:23:56.075Z,23.30
2023-04-15T01:24:56.086Z,23.30
2023-04-15T01:25:56.099Z,23.31
2023-04-15T01:26:56.106Z,23.30
2023-04-15T01:27:56.128Z,23.30
2023-04-15T01:28:56.135Z,23.29
2023-04-15T01:29:56.147Z,23.30
2023-04-15T01:30:56.181Z,23.30
2023-04-15T01:31:56.287Z,23.30
2023-04-15T01:32:56.225Z,23.29
2023-04-15T01:33:56.188Z,23.30
2023-04-15T01:34:56.191Z,23.30
2023-04-15T01:35:56.199Z,23.29
2023-04-15T01:36:56.219Z,23.30
2023-04-15T01:37:56.215Z,23.30
2023-04-15T01:38:56.223Z,23.30
2023-04-15T01:39:56.237Z,23.29
2023-04-15T01:40:56.252Z,23.30
2023-04-15T01:41:56.280Z,23.29
2023-04-15T01:42:56.302Z,23.30
2023-04-15T01:43:56.306Z,23.29
2023-04-15T01:44:56.303Z,23.29
2023-04-15T01:45:56.296Z,23.29
2023-04-15T01:46:56.458Z,23.29
2023-04-15T01:47:56.361Z,23.29
2023-04-15T01:48:56.329Z,23.29
2023-04-15T01:49:56.339Z,23.28
2023-04-15T01:50:56.345Z,23.29
2023-04-15T01:51:56.341Z,23.29
2023-04-15T01:52:56.352Z,23.28
2023-04-15T01:53:56.354Z,23.28
2023-04-15T01:54:56.363Z,23.28
2023-04-15T01:55:56.368Z,23.28
2023-04-15T01:56:56.381Z,23.28
2023-04-15T01:57:56.400Z,23.27
2023-04-15T01:58:56.404Z,23.27
2023-04-15T01:59:56.422Z,23.28
2023-04-15T02:00:56.461Z,23.28
2023-04-15T02:01:56.552Z,23.28
2023-04-15T02:02:56.562Z,23.28
2023-04-15T02:03:56.503Z,23.28
2023-04-15T02:04:56.493Z,23.27
2023-04-15T02:05:56.497Z,23.28
2023-04-15T02:06:56.517Z,23.28
2023-04-15T02:07:56.533Z,23.27
2023-04-15T02:08:56.538Z,23.28
2023-04-15T02:09:56.561Z,23.27
2023-04-15T02:10:56.584Z,23.27
2023-04-15T02:11:56.614Z,23.27
2023-04-15T02:12:56.633Z,23.27
2023-04-15T02:13:56.616Z,23.27
2023-04-15T02:14:56.648Z,23.27
2023-04-15T02:15:56.644Z,23.28
2023-04-15T02:16:56.816Z,23.27
2023-04-15T02:17:56.723Z,23.27
2023-04-15T02:18:56.775Z,23.27
2023-04-15T02:19:56.689Z,23.28
2023-04-15T02:20:56.714Z,23.27
2023-04-15T02:21:56.703Z,23.27
2023-04-15T02:22:56.716Z,23.27
2023-04-15T02:23:56.720Z,23.28
2023-04-15T02:24:56.747Z,23.27
2023-04-15T02:25:56.760Z,23.27
2023-04-15T02:26:56.773Z,23.28
2023-04-15T02:27:56.779Z,23.28
2023-04-15T02:28:56.794Z,23.27
2023-04-15T02:29:56.813Z,23.27
2023-04-15T02:30:56.818Z,23.27
2023-04-15T02:31:56.905Z,23.27
2023-04-15T02:32:56.896Z,23.27
2023-04-15T02:33:56.855Z,23.27
2023-04-15T02:34:56.889Z,23.27
2023-04-15T02:35:56.883Z,23.27
2023-04-15T02:36:56.890Z,23.27
2023-04-15T02:37:56.889Z,23.27
2023-04-15T02:38:56.888Z,23.27
2023-04-15T02:39:56.900Z,23.26
2023-04-15T02:40:56.911Z,23.26
2023-04-15T02:41:56.918Z,23.27
2023-04-15T02:42:56.929Z,23.27
2023-04-15T02:43:56.949Z,23.26
2023-04-15T02:44:56.952Z,23.25
2023-04-15T02:45:56.994Z,23.25
2023-04-15T02:46:56.978Z,23.25
2023-04-15T02:47:57.652Z,23.24
2023-04-15T02:48:56.974Z,23.25
2023-04-15T02:49:56.979Z,23.25
2023-04-15T02:50:57.014Z,23.25
2023-04-15T02:51:56.990Z,23.25
2023-04-15T02:52:57.009Z,23.24
2023-04-15T02:53:57.017Z,23.24
2023-04-15T02:54:57.047Z,23.25
2023-04-15T02:55:57.054Z,23.25
2023-04-15T02:56:57.063Z,23.25
2023-04-15T02:57:57.079Z,23.25
2023-04-15T02:58:57.091Z,23.25
2023-04-15T02:59:57.103Z,23.25
2023-04-15T03:00:57.120Z,23.25
2023-04-15T03:01:57.148Z,23.25
2023-04-15T03:02:57.244Z,23.25
2023-04-15T03:03:57.222Z,23.25
2023-04-15T03:04:57.169Z,23.25
2023-04-15T03:05:57.180Z,23.26
2023-04-15T03:06:57.236Z,23.26
2023-04-15T03:07:57.192Z,23.26
2023-04-15T03:08:57.226Z,23.26
2023-04-15T03:09:57.221Z,23.26
2023-04-15T03:10:57.222Z,23.26
2023-04-15T03:11:57.232Z,23.26
2023-04-15T03:12:57.258Z,23.25
2023-04-15T03:13:57.261Z,23.26
2023-04-15T03:14:57.257Z,23.26
2023-04-15T03:15:57.303Z,23.26
2023-04-15T03:16:57.275Z,23.25
2023-04-15T03:17:57.401Z,23.26
2023-04-15T03:18:57.298Z,23.25
2023-04-15T03:19:57.332Z,23.25
2023-04-15T03:20:57.303Z,23.25
2023-04-15T03:21:57.319Z,23.25
2023-04-15T03:22:57.356Z,23.24
2023-04-15T03:23:57.325Z,23.25
2023-04-15T03:24:57.353Z,23.25
2023-04-15T03:25:57.374Z,23.24
2023-04-15T03:26:57.374Z,23.24
2023-04-15T03:27:57.392Z,23.24
2023-04-15T03:28:57.447Z,23.23
2023-04-15T03:29:57.441Z,23.23
2023-04-15T03:30:57.449Z,23.24
2023-04-15T03:31:57.446Z,23.23
2023-04-15T03:32:57.485Z,23.24
2023-04-15T03:33:57.470Z,23.24
2023-04-15T03:34:57.468Z,23.23
2023-04-15T03:35:57.484Z,23.24
2023-04-15T03:36:57.473Z,23.23
2023-04-15T03:37:57.470Z,23.24
2023-04-15T03:38:57.507Z,23.23
2023-04-15T03:39:57.499Z,23.24
2023-04-15T03:40:57.517Z,23.24
2023-04-15T03:41:57.535Z,23.24
2023-04-15T03:42:57.540Z,23.24
2023-04-15T03:43:57.552Z,23.24
2023-04-15T03:44:57.595Z,23.23
2023-04-15T03:45:57.599Z,23.23
2023-04-15T03:46:57.599Z,23.23
2023-04-15T03:48:07.290Z,23.24
2023-04-15T03:48:57.606Z,23.23
2023-04-15T03:49:57.617Z,23.22
2023-04-15T03:50:57.583Z,23.23
2023-04-15T03:51:57.589Z,23.23
2023-04-15T03:52:57.562Z,23.23
2023-04-15T03:53:57.562Z,23.23
2023-04-15T03:54:57.577Z,23.23
2023-04-15T03:55:57.570Z,23.23
2023-04-15T03:56:57.544Z,23.23
2023-04-15T03:57:57.539Z,23.24
2023-04-15T03:58:57.532Z,23.23
2023-04-15T03:59:57.525Z,23.23
2023-04-15T04:00:57.512Z,23.23
2023-04-15T04:01:57.629Z,23.23
2023-04-15T04:02:57.801Z,23.23
2023-04-15T04:03:57.681Z,23.23
2023-04-15T04:04:57.490Z,23.24
2023-04-15T04:05:57.480Z,23.24
2023-04-15T04:06:57.483Z,23.23
2023-04-15T04:07:57.465Z,23.23
2023-04-15T04:08:57.466Z,23.23
2023-04-15T04:09:57.457Z,23.23
2023-04-15T04:10:57.500Z,23.24
2023-04-15T04:11:57.448Z,23.24
2023-04-15T04:12:57.451Z,23.24
2023-04-15T04:13:57.439Z,23.24
2023-04-15T04:14:57.440Z,23.23
2023-04-15T04:15:57.450Z,23.24
2023-04-15T04:16:57.498Z,23.24
2023-04-15T04:17:57.457Z,23.24
2023-04-15T04:18:57.405Z,23.24
2023-04-15T04:19:57.408Z,23.24
2023-04-15T04:20:57.389Z,23.23
2023-04-15T04:21:57.393Z,23.23
2023-04-15T04:22:57.380Z,23.23
2023-04-15T04:23:57.380Z,23.23
2023-04-15T04:24:57.372Z,23.24
2023-04-15T04:25:57.370Z,23.23
2023-04-15T04:26:57.472Z,23.23
2023-04-15T04:27:57.350Z,23.23
2023-04-15T04:28:57.341Z,23.23
2023-04-15T04:29:57.339Z,23.23
2023-04-15T04:30:57.328Z,23.23
2023-04-15T04:31:57.345Z,23.22
2023-04-15T04:32:57.374Z,23.22
2023-04-15T04:33:57.325Z,23.23
2023-04-15T04:34:57.296Z,23.23
2023-04-15T04:35:57.294Z,23.23
2023-04-15T04:36:58.156Z,23.22
2023-04-15T04:37:57.281Z,23.22
2023-04-15T04:38:57.289Z,23.23
2023-04-15T04:39:57.259Z,23.22
2023-04-15T04:40:57.266Z,23.22
2023-04-15T04:41:57.256Z,23.22
2023-04-15T04:42:57.265Z,23.22
2023-04-15T04:43:57.244Z,23.22
2023-04-15T04:44:57.224Z,23.21
2023-04-15T04:45:57.257Z,23.22
2023-04-15T04:46:57.207Z,23.22
2023-04-15T04:47:57.253Z,23.22
2023-04-15T04:48:57.214Z,23.22
2023-04-15T04:49:57.200Z,23.21
2023-04-15T04:50:57.191Z,23.21
2023-04-15T04:51:57.185Z,23.22
2023-04-15T04:52:57.176Z,23.22
2023-04-15T04:53:57.169Z,23.21
2023-04-15T04:54:57.162Z,23.21
2023-04-15T04:55:57.155Z,23.21
2023-04-15T04:56:57.148Z,23.21
2023-04-15T04:57:57.140Z,23.21
2023-04-15T04:58:57.157Z,23.21
2023-04-15T04:59:57.122Z,23.21
2023-04-15T05:00:57.170Z,23.20
2023-04-15T05:01:57.200Z,23.21
2023-04-15T05:02:57.241Z,23.21
2023-04-15T05:03:57.222Z,23.21
2023-04-15T05:04:57.097Z,23.21
2023-04-15T05:05:57.094Z,23.21
2023-04-15T05:06:57.083Z,23.20
2023-04-15T05:07:57.081Z,23.20
2023-04-15T05:08:57.070Z,23.20
2023-04-15T05:09:57.065Z,23.20
2023-04-15T05:10:57.064Z,23.20
2023-04-15T05:11:57.070Z,23.20
2023-04-15T05:12:57.078Z,23.20
2023-04-15T05:13:57.102Z,23.20
2023-04-15T05:14:57.147Z,23.21
2023-04-15T05:15:57.213Z,23.20
2023-04-15T05:16:57.175Z,23.21
2023-04-15T05:17:57.209Z,23.21
2023-04-15T05:18:57.191Z,23.21
2023-04-15T05:19:57.206Z,23.20
2023-04-15T05:20:57.226Z,23.20
2023-04-15T05:21:57.239Z,23.21
2023-04-15T05:22:57.250Z,23.20
2023-04-15T05:23:57.266Z,23.20
2023-04-15T05:24:57.289Z,23.20
2023-04-15T05:25:57.313Z,23.20
2023-04-15T05:26:57.346Z,23.20
2023-04-15T05:27:57.352Z,23.20
2023-04-15T05:28:57.371Z,23.20
2023-04-15T05:29:57.389Z,23.20
2023-04-15T05:30:57.437Z,23.20
2023-04-15T05:31:57.394Z,23.20
2023-04-15T05:32:57.455Z,23.20
2023-04-15T05:33:57.436Z,23.21
2023-04-15T05:34:57.452Z,23.21
2023-04-15T05:35:57.457Z,23.20
2023-04-15T05:36:57.458Z,23.21
2023-04-15T05:37:57.457Z,23.21
2023-04-15T05:38:57.465Z,23.21
2023-04-15T05:39:57.453Z,23.21
2023-04-15T05:40:57.450Z,23.21
2023-04-15T05:41:57.466Z,23.21
2023-04-15T05:42:57.486Z,23.22
2023-04-15T05:43:57.493Z,23.22
2023-04-15T05:44:57.497Z,23.22
2023-04-15T05:45:57.584Z,23.22
2023-04-15T05:46:57.565Z,23.22
2023-04-15T05:47:57.597Z,23.22
2023-04-15T05:48:57.599Z,23.22
2023-04-15T05:49:57.599Z,23.22
2023-04-15T05:50:57.634Z,23.22
2023-04-15T05:51:57.654Z,23.22
2023-04-15T05:52:57.669Z,23.23
2023-04-15T05:53:57.701Z,23.23
2023-04-15T05:54:57.703Z,23.22
2023-04-15T05:55:57.725Z,23.10
2023-04-15T05:56:57.816Z,22.80
2023-04-15T05:57:57.817Z,22.33
2023-04-15T05:58:57.831Z,21.76
2023-04-15T05:59:58.197Z,21.52
2023-04-15T06:00:57.921Z,21.48
2023-04-15T06:01:58.019Z,21.51
2023-04-15T06:02:58.147Z,21.59
2023-04-15T06:03:58.149Z,21.69
2023-04-15T06:04:58.203Z,21.80
2023-04-15T06:05:58.197Z,21.91
2023-04-15T06:06:58.238Z,22.01
2023-04-15T06:07:58.261Z,22.11
2023-04-15T06:08:58.270Z,22.21
2023-04-15T06:09:58.284Z,22.31
2023-04-15T06:10:58.283Z,22.40
2023-04-15T06:11:58.313Z,22.48
2023-04-15T06:12:58.367Z,22.56
2023-04-15T06:13:58.426Z,22.65
2023-04-15T06:15:00.093Z,22.72
2023-04-15T06:15:58.539Z,22.79
2023-04-15T06:16:58.482Z,22.85
2023-04-15T06:17:58.520Z,22.92
2023-04-15T06:18:58.604Z,22.98
2023-04-15T06:19:58.456Z,23.03
2023-04-15T06:20:58.453Z,23.09
2023-04-15T06:21:58.443Z,23.14
2023-04-15T06:22:58.440Z,23.19
2023-04-15T06:23:58.430Z,23.23
2023-04-15T06:24:58.429Z,23.26
2023-04-15T06:25:58.421Z,23.29
2023-04-15T06:26:58.416Z,23.32
2023-04-15T06:27:58.413Z,23.36
2023-04-15T06:28:58.448Z,23.39
2023-04-15T06:29:58.404Z,23.41
2023-04-15T06:30:58.395Z,23.43
2023-04-15T06:31:58.441Z,23.46
2023-04-15T06:32:58.418Z,23.48
2023-04-15T06:33:58.370Z,23.51
2023-04-15T06:34:58.388Z,23.52
2023-04-15T06:35:58.362Z,23.53
2023-04-15T06:36:58.355Z,23.55
2023-04-15T06:37:58.355Z,23.56
2023-04-15T06:38:58.354Z,23.58
2023-04-15T06:39:58.338Z,23.59
2023-04-15T06:40:58.317Z,23.61
2023-04-15T06:41:58.320Z,23.62
2023-04-15T06:42:58.325Z,23.64
2023-04-15T06:43:58.297Z,23.65
2023-04-15T06:44:58.292Z,23.66
2023-04-15T06:45:58.389Z,23.67
2023-04-15T06:46:58.277Z,23.68
2023-04-15T06:47:58.331Z,23.70
2023-04-15T06:48:58.272Z,23.71
2023-04-15T06:49:58.285Z,23.72
2023-04-15T06:50:58.314Z,23.73
2023-04-15T06:51:58.259Z,23.73
2023-04-15T06:52:58.246Z,23.75
2023-04-15T06:53:58.249Z,23.76
2023-04-15T06:54:58.228Z,23.76
2023-04-15T06:55:58.220Z,23.78
2023-04-15T06:56:58.217Z,23.78
2023-04-15T06:57:58.210Z,23.79
2023-04-15T06:58:58.203Z,23.80
2023-04-15T06:59:58.195Z,23.80
2023-04-15T07:00:58.228Z,23.80
2023-04-15T07:01:58.203Z,23.82
2023-04-15T07:02:58.206Z,23.82
2023-04-15T07:03:58.177Z,23.83
2023-04-15T07:04:58.162Z,23.83
2023-04-15T07:05:58.151Z,23.84
2023-04-15T07:06:58.205Z,23.84
2023-04-15T07:07:58.245Z,23.84
2023-04-15T07:08:58.307Z,23.84
2023-04-15T07:09:58.341Z,23.82
2023-04-15T07:10:58.379Z,23.80
2023-04-15T07:11:58.396Z,23.77
2023-04-15T07:12:58.409Z,23.75
2023-04-15T07:13:58.413Z,23.73
2023-04-15T07:14:58.421Z,23.70
2023-04-15T07:15:58.426Z,23.67
2023-04-15T07:16:58.489Z,23.64
2023-04-15T07:17:58.460Z,23.54
2023-04-15T07:18:58.451Z,23.27
2023-04-15T07:19:58.491Z,23.00
2023-04-15T07:20:58.533Z,22.79
2023-04-15T07:21:58.555Z,22.44
2023-04-15T07:22:58.594Z,22.15
2023-04-15T07:23:58.603Z,21.82
2023-04-15T07:24:58.680Z,21.59
2023-04-15T07:26:05.629Z,21.44
2023-04-15T07:27:00.326Z,21.35
2023-04-15T07:27:58.677Z,21.35
2023-04-15T07:28:58.717Z,21.42
2023-04-15T07:29:58.670Z,21.49
2023-04-15T07:30:58.712Z,21.57
2023-04-15T07:31:58.659Z,21.67
2023-04-15T07:32:58.677Z,21.78
2023-04-15T07:33:58.697Z,21.90
2023-04-15T07:34:58.638Z,21.99
2023-04-15T07:35:58.637Z,22.08
2023-04-15T07:36:58.622Z,22.15
2023-04-15T07:37:58.615Z,22.23
2023-04-15T07:38:58.634Z,22.32
2023-04-15T07:39:58.608Z,22.40
2023-04-15T07:40:58.611Z,22.47
2023-04-15T07:41:58.597Z,22.55
2023-04-15T07:42:58.606Z,22.63
2023-04-15T07:43:58.581Z,22.69
2023-04-15T07:44:58.566Z,22.77
2023-04-15T07:45:58.592Z,22.83
2023-04-15T07:46:58.567Z,22.90
2023-04-15T07:47:57.624Z,22.95
2023-04-15T07:48:58.548Z,23.01
2023-04-15T07:49:58.542Z,23.07
2023-04-15T07:50:58.531Z,23.12
2023-04-15T07:51:58.520Z,23.18
2023-04-15T07:52:58.528Z,23.22
2023-04-15T07:53:58.513Z,23.25
2023-04-15T07:54:58.531Z,23.28
2023-04-15T07:55:58.502Z,23.31
2023-04-15T07:56:58.668Z,23.33
2023-04-15T07:57:58.534Z,23.36
2023-04-15T07:58:58.620Z,23.39
2023-04-15T07:59:58.584Z,23.40
2023-04-15T08:00:58.594Z,23.43
2023-04-15T08:01:58.630Z,23.45
2023-04-15T08:02:58.789Z,23.47
2023-04-15T08:03:58.755Z,23.48
2023-04-15T08:04:58.687Z,23.50
2023-04-15T08:05:58.706Z,23.52
2023-04-15T08:06:58.718Z,23.54
2023-04-15T08:07:58.732Z,23.54
2023-04-15T08:08:58.817Z,23.55
2023-04-15T08:09:58.833Z,23.56
2023-04-15T08:10:58.914Z,23.58
2023-04-15T08:11:58.882Z,23.59
2023-04-15T08:12:59.270Z,23.60
2023-04-15T08:13:58.894Z,23.61
2023-04-15T08:14:58.873Z,23.62
2023-04-15T08:15:58.940Z,23.63
2023-04-15T08:16:58.866Z,23.63
2023-04-15T08:17:58.896Z,23.65
2023-04-15T08:18:58.933Z,23.66
2023-04-15T08:19:58.862Z,23.67
2023-04-15T08:20:58.867Z,23.68
2023-04-15T08:21:58.885Z,23.69
2023-04-15T08:22:58.943Z,23.70
2023-04-15T08:23:58.974Z,23.70
2023-04-15T08:24:58.970Z,23.70
2023-04-15T08:25:58.974Z,23.71
2023-04-15T08:26:59.001Z,23.69
2023-04-15T08:27:58.975Z,23.64
2023-04-15T08:28:59.006Z,23.55
2023-04-15T08:29:58.999Z,23.51
2023-04-15T08:30:59.019Z,23.47
2023-04-15T08:31:59.074Z,23.46
2023-04-15T08:32:59.102Z,23.45
2023-04-15T08:33:59.081Z,23.44
2023-04-15T08:34:59.093Z,23.45
2023-04-15T08:35:59.115Z,23.46
2023-04-15T08:36:59.122Z,23.47
2023-04-15T08:37:59.139Z,23.49
2023-04-15T08:38:59.159Z,23.52
2023-04-15T08:39:59.168Z,23.53
2023-04-15T08:40:59.178Z,23.55
2023-04-15T08:41:59.175Z,23.57
2023-04-15T08:42:59.208Z,23.58
2023-04-15T08:43:59.183Z,23.59
2023-04-15T08:44:59.212Z,23.60
2023-04-15T08:45:59.204Z,23.61
2023-04-15T08:46:59.293Z,23.61
2023-04-15T08:47:59.321Z,23.61
2023-04-15T08:48:59.274Z,23.62
2023-04-15T08:49:59.228Z,23.62
2023-04-15T08:50:59.291Z,23.62
2023-04-15T08:51:59.331Z,23.62
2023-04-15T08:52:59.400Z,23.63
2023-04-15T08:53:59.393Z,23.64
2023-04-15T08:54:59.393Z,23.65
2023-04-15T08:55:59.395Z,23.66
2023-04-15T08:56:59.405Z,23.66
2023-04-15T08:57:59.395Z,23.67
2023-04-15T08:58:59.469Z,23.69
2023-04-15T08:59:59.394Z,23.69
2023-04-15T09:00:59.434Z,23.69
2023-04-15T09:01:59.489Z,23.71
2023-04-15T09:02:59.535Z,23.72
2023-04-15T09:03:59.454Z,23.72
2023-04-15T09:04:59.523Z,23.73
2023-04-15T09:05:59.535Z,23.73
2023-04-15T09:06:59.553Z,23.74
2023-04-15T09:07:59.619Z,23.75
2023-04-15T09:08:59.875Z,23.75
2023-04-15T09:09:59.696Z,23.76
2023-04-15T09:10:59.737Z,23.76
2023-04-15T09:11:59.788Z,23.76
2023-04-15T09:12:59.834Z,23.77
2023-04-15T09:13:59.910Z,23.77
2023-04-15T09:14:59.983Z,23.78
2023-04-15T09:16:00.044Z,23.78
2023-04-15T09:17:00.131Z,23.78
2023-04-15T09:18:00.195Z,23.79
2023-04-15T09:19:00.383Z,23.79
2023-04-15T09:20:00.237Z,23.80
2023-04-15T09:21:00.296Z,23.80
2023-04-15T09:22:00.370Z,23.81
2023-04-15T09:23:00.406Z,23.82
2023-04-15T09:24:00.625Z,23.82
2023-04-15T09:25:00.527Z,23.82
2023-04-15T09:26:00.550Z,23.82
2023-04-15T09:27:00.617Z,23.82
2023-04-15T09:28:00.651Z,23.83
2023-04-15T09:29:00.703Z,23.83
2023-04-15T09:30:00.769Z,23.83
2023-04-15T09:31:00.896Z,23.83
2023-04-15T09:32:00.900Z,23.83
2023-04-15T09:33:00.998Z,23.84
2023-04-15T09:34:01.394Z,23.85
2023-04-15T09:35:01.085Z,23.85
2023-04-15T09:36:01.144Z,23.86
2023-04-15T09:37:01.197Z,23.86
2023-04-15T09:38:01.260Z,23.87
2023-04-15T09:39:01.389Z,23.88
2023-04-15T09:40:01.420Z,23.87
2023-04-15T09:41:01.451Z,23.86
2023-04-15T09:42:01.537Z,23.86
2023-04-15T09:43:01.564Z,23.84
2023-04-15T09:44:01.900Z,23.82
2023-04-15T09:45:01.652Z,23.78
2023-04-15T09:46:01.750Z,23.75
2023-04-15T09:47:01.716Z,23.73
2023-04-15T09:48:01.722Z,23.69
2023-04-15T09:49:01.701Z,23.66
2023-04-15T09:50:02.029Z,23.63
2023-04-15T09:51:01.839Z,23.60
2023-04-15T09:52:05.588Z,23.59
2023-04-15T09:53:01.914Z,23.56
2023-04-15T09:54:02.114Z,23.54
2023-04-15T09:55:02.019Z,23.52
2023-04-15T09:56:02.014Z,23.50
2023-04-15T09:57:02.018Z,23.49
2023-04-15T09:58:02.092Z,23.47
2023-04-15T09:59:02.066Z,23.47
2023-04-15T10:00:02.120Z,23.47
2023-04-15T10:01:02.176Z,23.47
2023-04-15T10:02:02.117Z,23.48
2023-04-15T10:03:02.349Z,23.50
2023-04-15T10:04:02.619Z,23.51
2023-04-15T10:05:02.126Z,23.52
2023-04-15T10:06:02.154Z,23.53
2023-04-15T10:07:02.147Z,23.55
2023-04-15T10:08:02.152Z,23.55
2023-04-15T10:09:02.169Z,23.57
2023-04-15T10:10:02.168Z,23.58
2023-04-15T10:11:02.234Z,23.60
2023-04-15T10:12:02.178Z,23.61
2023-04-15T10:13:02.228Z,23.62
2023-04-15T10:14:02.596Z,23.63
2023-04-15T10:15:02.307Z,23.64
2023-04-15T10:16:02.416Z,23.66
2023-04-15T10:17:02.298Z,23.66
2023-04-15T10:18:02.371Z,23.67
2023-04-15T10:19:02.332Z,23.67
2023-04-15T10:20:02.312Z,23.69
2023-04-15T10:21:02.417Z,23.70
2023-04-15T10:22:02.417Z,23.72
2023-04-15T10:23:02.458Z,23.73
2023-04-15T10:24:02.825Z,23.73
2023-04-15T10:25:02.489Z,23.74
2023-04-15T10:26:02.504Z,23.75
2023-04-15T10:27:02.530Z,23.75
2023-04-15T10:28:02.572Z,23.77
2023-04-15T10:29:02.603Z,23.77
2023-04-15T10:30:02.629Z,23.78
2023-04-15T10:31:02.708Z,23.78
2023-04-15T10:32:02.748Z,23.78
2023-04-15T10:33:02.813Z,23.79
2023-04-15T10:34:03.039Z,23.79
2023-04-15T10:35:02.842Z,23.80
2023-04-15T10:36:02.875Z,23.81
2023-04-15T10:37:02.923Z,23.81
2023-04-15T10:38:02.972Z,23.83
2023-04-15T10:39:03.023Z,23.83
2023-04-15T10:40:03.070Z,23.83
2023-04-15T10:41:03.119Z,23.83
2023-04-15T10:42:03.172Z,23.83
2023-04-15T10:43:03.301Z,23.83
2023-04-15T10:44:03.552Z,23.84
2023-04-15T10:45:03.356Z,23.84
2023-04-15T10:46:03.433Z,23.84
2023-04-15T10:47:03.493Z,23.84
2023-04-15T10:48:04.009Z,23.84
2023-04-15T10:49:03.620Z,23.84
2023-04-15T10:50:03.714Z,23.84
2023-04-15T10:51:03.775Z,23.84
2023-04-15T10:52:03.802Z,23.82
2023-04-15T10:53:03.880Z,23.82
2023-04-15T10:54:04.148Z,23.82
2023-04-15T10:55:03.985Z,23.82
2023-04-15T10:56:04.032Z,23.81
2023-04-15T10:57:04.061Z,23.81
2023-04-15T10:58:04.104Z,23.80
2023-04-15T10:59:04.130Z,23.79
2023-04-15T11:00:04.351Z,23.78
2023-04-15T11:01:04.160Z,23.78
2023-04-15T11:02:04.310Z,23.77
2023-04-15T11:03:04.268Z,23.76
2023-04-15T11:04:04.594Z,23.75
2023-04-15T11:05:04.208Z,23.76
2023-04-15T11:06:04.222Z,23.75
2023-04-15T11:07:04.273Z,23.75
2023-04-15T11:08:04.261Z,23.74
2023-04-15T11:09:04.250Z,23.74
2023-04-15T11:10:04.255Z,23.73
2023-04-15T11:11:04.267Z,23.73
2023-04-15T11:12:04.267Z,23.73
2023-04-15T11:13:04.266Z,23.72
2023-04-15T11:14:04.390Z,23.72
2023-04-15T11:15:04.268Z,23.72
2023-04-15T11:16:04.318Z,23.72
2023-04-15T11:17:04.278Z,23.71
2023-04-15T11:18:04.271Z,23.72
2023-04-15T11:19:04.252Z,23.71
2023-04-15T11:20:04.261Z,23.70
2023-04-15T11:21:04.261Z,23.70
2023-04-15T11:22:04.263Z,23.69
2023-04-15T11:23:14.510Z,23.69
2023-04-15T11:24:04.305Z,23.68
2023-04-15T11:25:04.240Z,23.67
2023-04-15T11:26:04.229Z,23.67
2023-04-15T11:27:04.220Z,23.66
2023-04-15T11:28:04.228Z,23.66
2023-04-15T11:29:04.445Z,23.66
2023-04-15T11:30:04.216Z,23.65
2023-04-15T11:31:04.205Z,23.65
2023-04-15T11:32:04.215Z,23.65
2023-04-15T11:33:04.230Z,23.64
2023-04-15T11:34:04.377Z,23.64
2023-04-15T11:35:04.195Z,23.64
2023-04-15T11:36:04.176Z,23.63
2023-04-15T11:37:04.177Z,23.62
2023-04-15T11:38:04.175Z,23.63
2023-04-15T11:39:04.175Z,23.62
2023-04-15T11:40:04.148Z,23.61
2023-04-15T11:41:04.145Z,23.61
2023-04-15T11:42:04.140Z,23.62
2023-04-15T11:43:04.129Z,23.61
2023-04-15T11:44:04.278Z,23.61
2023-04-15T11:45:04.108Z,23.60
2023-04-15T11:46:04.212Z,23.60
2023-04-15T11:47:04.099Z,23.60
2023-04-15T11:48:04.107Z,23.59
2023-04-15T11:49:04.082Z,23.59
2023-04-15T11:50:04.066Z,23.60
2023-04-15T11:51:04.077Z,23.59
2023-04-15T11:52:04.054Z,23.59
2023-04-15T11:53:06.280Z,23.59
2023-04-15T11:54:04.371Z,23.59
2023-04-15T11:55:04.067Z,23.58
2023-04-15T11:56:04.036Z,23.58
2023-04-15T11:57:04.019Z,23.58
2023-04-15T11:58:04.024Z,23.58
2023-04-15T11:59:04.013Z,23.57
2023-04-15T12:00:04.003Z,23.57
2023-04-15T12:01:03.987Z,23.57
2023-04-15T12:02:04.032Z,23.57
2023-04-15T12:03:04.174Z,23.58
2023-04-15T12:04:04.583Z,23.57
2023-04-15T12:05:04.079Z,23.57
2023-04-15T12:06:03.961Z,23.56
2023-04-15T12:07:03.947Z,23.56
2023-04-15T12:08:03.938Z,23.56
2023-04-15T12:09:03.942Z,23.55
2023-04-15T12:10:03.929Z,23.55
2023-04-15T12:11:03.947Z,23.55
2023-04-15T12:12:03.917Z,23.54
2023-04-15T12:13:03.903Z,23.54
2023-04-15T12:14:04.066Z,23.55
2023-04-15T12:15:03.893Z,23.53
2023-04-15T12:16:03.924Z,23.54
2023-04-15T12:17:03.881Z,23.54
2023-04-15T12:18:03.948Z,23.54
2023-04-15T12:19:03.897Z,23.53
2023-04-15T12:20:03.889Z,23.53
2023-04-15T12:21:03.878Z,23.53
2023-04-15T12:22:03.873Z,23.53
2023-04-15T12:23:03.869Z,23.53
2023-04-15T12:24:04.234Z,23.53
2023-04-15T12:25:03.873Z,23.53
2023-04-15T12:26:03.851Z,23.53
2023-04-15T12:27:03.866Z,23.52
2023-04-15T12:28:03.836Z,23.52
2023-04-15T12:29:03.832Z,23.52
2023-04-15T12:30:03.830Z,23.53
2023-04-15T12:31:03.834Z,23.53
2023-04-15T12:32:03.828Z,23.53
2023-04-15T12:33:03.848Z,23.53
2023-04-15T12:34:03.969Z,23.53
2023-04-15T12:35:03.795Z,23.53
2023-04-15T12:36:03.793Z,23.54
2023-04-15T12:37:03.810Z,23.54
2023-04-15T12:38:03.781Z,23.54
2023-04-15T12:39:03.780Z,23.54
2023-04-15T12:40:03.774Z,23.54
2023-04-15T12:41:03.782Z,23.55
2023-04-15T12:42:03.757Z,23.55
2023-04-15T12:43:03.784Z,23.54
2023-04-15T12:44:03.953Z,23.55
2023-04-15T12:45:03.741Z,23.54
2023-04-15T12:46:03.771Z,23.55
2023-04-15T12:47:03.763Z,23.55
2023-04-15T12:48:03.737Z,23.54
2023-04-15T12:49:03.718Z,23.55
2023-04-15T12:50:03.705Z,23.54
2023-04-15T12:51:05.617Z,23.54
2023-04-15T12:52:03.695Z,23.54
2023-04-15T12:53:03.697Z,23.53